Aviation Digital Data Service (ADDS)

Output produced by METARs form (1544 UTC 18 August 2019)
found at http://www.aviationweather.gov/metar/data/
 
NSFA 181500Z 16003KT 9999 FEW030 23/23 Q1011 NOSIG
NSFA 181400Z 16003KT 9999 FEW030 23/22 Q1012 NOSIG
NSFA 181300Z 16003KT 9999 FEW030 24/22 Q1012 NOSIG
NSFA 181200Z 11003KT 9999 FEW028 24/23 Q1013 NOSIG
NSFA 181100Z 10003KT 9999 FEW030 25/23 Q1013 RMK NIL
NSFA 181000Z 10004KT 9999 FEW028 25/23 Q1013 RMK NIL
NSFA 180900Z 11005KT 9999 FEW026 25/23 Q1013 RMK NIL
NSFA 180800Z 12003KT 9999 FEW025 26/23 Q1013 RMK NIL
NSFA 180700Z 12005KT 9999 BKN023 26/23 Q1013 RMK NIL
NSFA 180600Z 14006KT 9999 FEW020 SCT040 BKN140 26/23 Q1012 RMK NIL
NSFA 180500Z 12008KT 9999 SCT022 BKN160 26/23 Q1012 RMK NIL
NSFA 180400Z VRB03KT 9999 SCT022 BKN150 29/24 Q1011 RMK NIL
NSFA 180300Z VRB03KT 9999 FEW026 BKN300 30/24 Q1011 RMK NIL
NSFA 180100Z 36006KT 230V020 9999 FEW026 BKN300 30/25 Q1012 RMK NIL
NSFA 180000Z 02007KT 9999 FEW020CB FEW024 BKN290 30/26 Q1012 RMK CB TO WNW
NSFA 172300Z 02006KT 9999 FEW026 BKN290 29/26 Q1013 NIL
NSFA 172200Z 01008KT 9999 FEW024 BKN290 30/26 Q1014 NIL
NSFA 172100Z 03007KT 9999 FEW022 SCT120 BKN290 29/26 Q1015 RMK NIL
NSFA 171900Z 07007KT 9999 FEW023 27/25 Q1014 NIL
NSFA 171800Z 09005KT 9999 FEW026 BKN290 24/24 Q1013 NIL
NSFA 171700Z 11005KT 9999 FEW026 25/24 Q1012 NOSIG
NSFA 171600Z 10004KT 9999 FEW026 25/24 Q1012 NOSIG
TAF NSFA 181107Z 1812/1912 10004KT 9999 FEW030 
     PROB40 
     TEMPO 1900/1906 5000 SHRA BKN015